sensor_id;sensor_type;location;lat;lon;timestamp;pressure;altitude;pressure_sealevel;temperature;humidity
40946;BME280;55635;50.264;11.918;2023-07-30T00:00:27;95153.91;;;18.03;89.62
40946;BME280;55635;50.264;11.918;2023-07-30T00:03:09;95145.84;;;18.03;88.78
40946;BME280;55635;50.264;11.918;2023-07-30T00:05:56;95146.91;;;18.02;90.53
40946;BME280;55635;50.264;11.918;2023-07-30T00:08:37;95157.47;;;17.91;89.35
40946;BME280;55635;50.264;11.918;2023-07-30T00:11:18;95139.81;;;17.79;91.17
40946;BME280;55635;50.264;11.918;2023-07-30T00:13:58;95152.91;;;17.92;90.57
40946;BME280;55635;50.264;11.918;2023-07-30T00:16:39;95141.19;;;17.98;89.30
40946;BME280;55635;50.264;11.918;2023-07-30T00:19:20;95144.22;;;18.02;88.77
40946;BME280;55635;50.264;11.918;2023-07-30T00:22:01;95143.00;;;17.92;88.78
40946;BME280;55635;50.264;11.918;2023-07-30T00:24:42;95153.78;;;17.81;89.73
40946;BME280;55635;50.264;11.918;2023-07-30T00:27:23;95145.00;;;17.69;90.07
40946;BME280;55635;50.264;11.918;2023-07-30T00:30:05;95153.41;;;17.49;93.19
40946;BME280;55635;50.264;11.918;2023-07-30T00:32:46;95149.81;;;17.55;92.18
40946;BME280;55635;50.264;11.918;2023-07-30T00:35:27;95146.22;;;17.61;92.06
40946;BME280;55635;50.264;11.918;2023-07-30T00:38:08;95144.31;;;17.62;92.71
40946;BME280;55635;50.264;11.918;2023-07-30T00:40:49;95141.09;;;17.48;94.72
40946;BME280;55635;50.264;11.918;2023-07-30T00:43:30;95146.03;;;17.68;93.28
40946;BME280;55635;50.264;11.918;2023-07-30T00:46:11;95148.88;;;17.61;93.61
40946;BME280;55635;50.264;11.918;2023-07-30T00:48:53;95155.06;;;17.50;91.56
40946;BME280;55635;50.264;11.918;2023-07-30T00:51:35;95158.56;;;17.11;93.33
40946;BME280;55635;50.264;11.918;2023-07-30T00:54:16;95165.28;;;17.25;94.18
40946;BME280;55635;50.264;11.918;2023-07-30T00:56:57;95159.69;;;17.26;95.15
40946;BME280;55635;50.264;11.918;2023-07-30T00:59:38;95164.50;;;17.24;94.91
40946;BME280;55635;50.264;11.918;2023-07-30T01:02:19;95158.69;;;17.44;93.91
40946;BME280;55635;50.264;11.918;2023-07-30T01:05:02;95151.97;;;17.41;94.41
40946;BME280;55635;50.264;11.918;2023-07-30T01:07:44;95148.06;;;17.49;94.46
40946;BME280;55635;50.264;11.918;2023-07-30T01:10:26;95145.06;;;17.46;93.42
40946;BME280;55635;50.264;11.918;2023-07-30T01:13:08;95149.22;;;17.53;92.27
40946;BME280;55635;50.264;11.918;2023-07-30T01:15:50;95154.72;;;17.58;92.12
40946;BME280;55635;50.264;11.918;2023-07-30T01:18:31;95151.72;;;17.71;90.97
40946;BME280;55635;50.264;11.918;2023-07-30T01:21:12;95150.88;;;17.82;89.88
40946;BME280;55635;50.264;11.918;2023-07-30T01:23:53;95148.50;;;17.86;91.21
40946;BME280;55635;50.264;11.918;2023-07-30T01:26:46;95135.44;;;17.89;90.51
40946;BME280;55635;50.264;11.918;2023-07-30T01:29:48;95141.69;;;17.95;90.31
40946;BME280;55635;50.264;11.918;2023-07-30T01:32:33;95157.03;;;17.83;90.02
40946;BME280;55635;50.264;11.918;2023-07-30T01:35:14;95140.94;;;17.83;88.73
40946;BME280;55635;50.264;11.918;2023-07-30T01:37:55;95138.81;;;17.68;89.13
40946;BME280;55635;50.264;11.918;2023-07-30T01:40:38;95151.22;;;17.46;89.73
40946;BME280;55635;50.264;11.918;2023-07-30T01:43:19;95141.41;;;17.23;91.83
40946;BME280;55635;50.264;11.918;2023-07-30T01:46:00;95144.91;;;17.52;92.59
40946;BME280;55635;50.264;11.918;2023-07-30T01:48:41;95148.13;;;17.37;94.73
40946;BME280;55635;50.264;11.918;2023-07-30T01:51:22;95149.81;;;17.55;94.91
40946;BME280;55635;50.264;11.918;2023-07-30T01:54:03;95157.66;;;17.45;95.12
40946;BME280;55635;50.264;11.918;2023-07-30T01:56:44;95149.13;;;17.60;96.06
40946;BME280;55635;50.264;11.918;2023-07-30T01:59:25;95146.00;;;17.79;96.49
40946;BME280;55635;50.264;11.918;2023-07-30T02:02:06;95146.69;;;18.03;95.11
40946;BME280;55635;50.264;11.918;2023-07-30T02:04:47;95134.94;;;18.26;94.49
40946;BME280;55635;50.264;11.918;2023-07-30T02:07:28;95132.47;;;18.19;94.15
40946;BME280;55635;50.264;11.918;2023-07-30T02:10:09;95142.75;;;18.11;92.87
40946;BME280;55635;50.264;11.918;2023-07-30T02:12:50;95129.56;;;17.92;93.19
40946;BME280;55635;50.264;11.918;2023-07-30T02:15:31;95150.66;;;18.01;94.84
40946;BME280;55635;50.264;11.918;2023-07-30T02:18:12;95155.09;;;17.78;98.17
40946;BME280;55635;50.264;11.918;2023-07-30T02:20:53;95149.09;;;18.05;95.88
40946;BME280;55635;50.264;11.918;2023-07-30T02:23:34;95145.44;;;18.11;95.99
40946;BME280;55635;50.264;11.918;2023-07-30T02:26:15;95140.81;;;18.23;95.09
40946;BME280;55635;50.264;11.918;2023-07-30T02:28:56;95136.69;;;18.15;96.70
40946;BME280;55635;50.264;11.918;2023-07-30T02:31:39;95146.81;;;17.97;98.78
40946;BME280;55635;50.264;11.918;2023-07-30T02:34:20;95142.03;;;17.99;99.11
40946;BME280;55635;50.264;11.918;2023-07-30T02:37:01;95143.81;;;17.93;100.00
40946;BME280;55635;50.264;11.918;2023-07-30T02:39:42;95141.59;;;17.90;100.00
40946;BME280;55635;50.264;11.918;2023-07-30T02:42:23;95158.88;;;17.94;100.00
40946;BME280;55635;50.264;11.918;2023-07-30T02:45:05;95153.09;;;18.02;100.00
40946;BME280;55635;50.264;11.918;2023-07-30T02:47:45;95163.50;;;18.32;100.00
40946;BME280;55635;50.264;11.918;2023-07-30T02:50:26;95158.88;;;18.44;100.00
40946;BME280;55635;50.264;11.918;2023-07-30T02:53:07;95157.81;;;18.45;100.00
40946;BME280;55635;50.264;11.918;2023-07-30T02:55:48;95171.44;;;18.55;100.00
40946;BME280;55635;50.264;11.918;2023-07-30T02:58:29;95160.00;;;18.48;100.00
40946;BME280;55635;50.264;11.918;2023-07-30T03:01:10;95166.56;;;18.52;100.00
40946;BME280;55635;50.264;11.918;2023-07-30T03:03:52;95165.56;;;18.58;100.00
40946;BME280;55635;50.264;11.918;2023-07-30T03:06:33;95167.59;;;18.68;100.00
40946;BME280;55635;50.264;11.918;2023-07-30T03:09:14;95168.31;;;18.63;100.00
40946;BME280;55635;50.264;11.918;2023-07-30T03:11:55;95165.41;;;18.65;100.00
40946;BME280;55635;50.264;11.918;2023-07-30T03:14:35;95163.66;;;18.75;100.00
40946;BME280;55635;50.264;11.918;2023-07-30T03:17:17;95160.56;;;18.83;100.00
40946;BME280;55635;50.264;11.918;2023-07-30T03:19:58;95162.94;;;18.63;100.00
40946;BME280;55635;50.264;11.918;2023-07-30T03:22:39;95168.31;;;18.63;100.00
40946;BME280;55635;50.264;11.918;2023-07-30T03:25:20;95164.09;;;18.51;100.00
40946;BME280;55635;50.264;11.918;2023-07-30T03:28:03;95164.91;;;18.34;100.00
40946;BME280;55635;50.264;11.918;2023-07-30T03:30:44;95170.69;;;18.60;100.00
40946;BME280;55635;50.264;11.918;2023-07-30T03:33:25;95163.44;;;18.60;100.00
40946;BME280;55635;50.264;11.918;2023-07-30T03:36:06;95172.25;;;18.56;100.00
40946;BME280;55635;50.264;11.918;2023-07-30T03:38:47;95152.53;;;18.50;100.00
40946;BME280;55635;50.264;11.918;2023-07-30T03:41:28;95165.69;;;18.85;100.00
40946;BME280;55635;50.264;11.918;2023-07-30T03:44:08;95170.00;;;18.86;100.00
40946;BME280;55635;50.264;11.918;2023-07-30T03:46:49;95165.97;;;19.05;99.48
40946;BME280;55635;50.264;11.918;2023-07-30T03:49:30;95159.91;;;19.15;99.08
40946;BME280;55635;50.264;11.918;2023-07-30T03:52:11;95168.16;;;19.08;99.09
40946;BME280;55635;50.264;11.918;2023-07-30T03:54:55;95157.53;;;19.18;99.10
40946;BME280;55635;50.264;11.918;2023-07-30T03:57:41;95157.88;;;19.43;97.61
40946;BME280;55635;50.264;11.918;2023-07-30T04:00:22;95160.94;;;19.52;96.07
40946;BME280;55635;50.264;11.918;2023-07-30T04:03:04;95152.25;;;19.45;96.90
40946;BME280;55635;50.264;11.918;2023-07-30T04:05:45;95159.91;;;19.15;98.90
40946;BME280;55635;50.264;11.918;2023-07-30T04:08:26;95157.34;;;19.03;99.89
40946;BME280;55635;50.264;11.918;2023-07-30T04:11:07;95147.34;;;18.98;99.58
40946;BME280;55635;50.264;11.918;2023-07-30T04:13:49;95169.34;;;18.95;100.00
40946;BME280;55635;50.264;11.918;2023-07-30T04:16:30;95181.03;;;19.06;100.00
40946;BME280;55635;50.264;11.918;2023-07-30T04:19:11;95177.63;;;19.11;99.86
40946;BME280;55635;50.264;11.918;2023-07-30T04:21:52;95180.97;;;19.01;100.00
40946;BME280;55635;50.264;11.918;2023-07-30T04:24:33;95179.69;;;18.87;100.00
40946;BME280;55635;50.264;11.918;2023-07-30T04:27:14;95181.38;;;18.93;100.00
40946;BME280;55635;50.264;11.918;2023-07-30T04:29:56;95188.06;;;18.90;100.00
40946;BME280;55635;50.264;11.918;2023-07-30T04:32:37;95186.56;;;18.99;100.00
40946;BME280;55635;50.264;11.918;2023-07-30T04:35:17;95182.34;;;19.03;100.00
40946;BME280;55635;50.264;11.918;2023-07-30T04:37:58;95182.22;;;19.15;100.00
40946;BME280;55635;50.264;11.918;2023-07-30T04:40:39;95189.97;;;19.12;99.75
40946;BME280;55635;50.264;11.918;2023-07-30T04:43:20;95187.09;;;19.18;99.83
40946;BME280;55635;50.264;11.918;2023-07-30T04:46:07;95188.28;;;19.27;99.70
40946;BME280;55635;50.264;11.918;2023-07-30T04:48:48;95196.94;;;19.29;99.02
40946;BME280;55635;50.264;11.918;2023-07-30T04:51:32;95209.63;;;19.34;99.55
40946;BME280;55635;50.264;11.918;2023-07-30T04:54:13;95218.81;;;19.38;98.09
40946;BME280;55635;50.264;11.918;2023-07-30T04:56:54;95223.75;;;19.41;98.74
40946;BME280;55635;50.264;11.918;2023-07-30T04:59:35;95222.16;;;19.45;98.41
40946;BME280;55635;50.264;11.918;2023-07-30T05:02:16;95225.94;;;19.66;97.06
40946;BME280;55635;50.264;11.918;2023-07-30T05:04:57;95227.81;;;19.65;97.62
40946;BME280;55635;50.264;11.918;2023-07-30T05:07:38;95229.63;;;19.81;96.29
40946;BME280;55635;50.264;11.918;2023-07-30T05:10:18;95221.28;;;19.83;97.16
40946;BME280;55635;50.264;11.918;2023-07-30T05:12:59;95224.94;;;19.98;95.75
40946;BME280;55635;50.264;11.918;2023-07-30T05:15:40;95224.56;;;20.12;94.76
40946;BME280;55635;50.264;11.918;2023-07-30T05:18:21;95222.88;;;20.05;95.43
40946;BME280;55635;50.264;11.918;2023-07-30T05:21:02;95219.22;;;20.17;94.89
40946;BME280;55635;50.264;11.918;2023-07-30T05:23:43;95221.44;;;20.25;94.15
40946;BME280;55635;50.264;11.918;2023-07-30T05:26:24;95229.34;;;20.31;94.29
40946;BME280;55635;50.264;11.918;2023-07-30T05:29:05;95222.75;;;20.22;94.86
40946;BME280;55635;50.264;11.918;2023-07-30T05:31:46;95222.44;;;20.19;95.36
40946;BME280;55635;50.264;11.918;2023-07-30T05:34:26;95224.06;;;20.15;96.78
40946;BME280;55635;50.264;11.918;2023-07-30T05:37:07;95220.53;;;20.14;97.21
40946;BME280;55635;50.264;11.918;2023-07-30T05:39:48;95232.53;;;20.01;98.01
40946;BME280;55635;50.264;11.918;2023-07-30T05:42:29;95239.19;;;19.72;100.00
40946;BME280;55635;50.264;11.918;2023-07-30T05:45:10;95245.19;;;19.79;100.00
40946;BME280;55635;50.264;11.918;2023-07-30T05:47:51;95254.44;;;19.88;99.19
40946;BME280;55635;50.264;11.918;2023-07-30T05:50:32;95259.91;;;19.72;100.00
40946;BME280;55635;50.264;11.918;2023-07-30T05:53:13;95269.66;;;19.56;100.00
40946;BME280;55635;50.264;11.918;2023-07-30T05:55:54;95264.97;;;19.68;100.00
40946;BME280;55635;50.264;11.918;2023-07-30T05:58:35;95260.44;;;19.95;99.71
40946;BME280;55635;50.264;11.918;2023-07-30T06:01:16;95267.63;;;20.12;99.37
40946;BME280;55635;50.264;11.918;2023-07-30T06:03:57;95262.44;;;20.27;98.27
40946;BME280;55635;50.264;11.918;2023-07-30T06:06:39;95257.25;;;20.25;97.45
40946;BME280;55635;50.264;11.918;2023-07-30T06:09:20;95262.00;;;20.40;96.48
40946;BME280;55635;50.264;11.918;2023-07-30T06:12:00;95259.03;;;20.36;96.49
40946;BME280;55635;50.264;11.918;2023-07-30T06:14:41;95262.56;;;20.69;96.52
40946;BME280;55635;50.264;11.918;2023-07-30T06:17:22;95256.94;;;20.75;96.60
40946;BME280;55635;50.264;11.918;2023-07-30T06:20:04;95242.53;;;20.91;93.58
40946;BME280;55635;50.264;11.918;2023-07-30T06:22:45;95250.84;;;20.85;95.75
40946;BME280;55635;50.264;11.918;2023-07-30T06:25:26;95244.03;;;20.77;95.92
40946;BME280;55635;50.264;11.918;2023-07-30T06:28:07;95249.94;;;20.74;94.13
40946;BME280;55635;50.264;11.918;2023-07-30T06:30:48;95258.53;;;20.71;94.60
40946;BME280;55635;50.264;11.918;2023-07-30T06:33:29;95251.59;;;20.48;95.78
40946;BME280;55635;50.264;11.918;2023-07-30T06:36:10;95261.72;;;20.68;94.93
40946;BME280;55635;50.264;11.918;2023-07-30T06:38:51;95263.72;;;20.83;93.42
40946;BME280;55635;50.264;11.918;2023-07-30T06:41:32;95264.13;;;20.64;94.33
40946;BME280;55635;50.264;11.918;2023-07-30T06:44:13;95268.06;;;20.84;96.38
40946;BME280;55635;50.264;11.918;2023-07-30T06:46:54;95269.03;;;21.04;94.44
40946;BME280;55635;50.264;11.918;2023-07-30T06:49:35;95267.09;;;21.32;95.27
40946;BME280;55635;50.264;11.918;2023-07-30T06:52:16;95266.44;;;21.14;93.46
40946;BME280;55635;50.264;11.918;2023-07-30T06:54:56;95274.63;;;21.25;92.21
40946;BME280;55635;50.264;11.918;2023-07-30T06:57:37;95271.53;;;21.53;90.58
40946;BME280;55635;50.264;11.918;2023-07-30T07:00:18;95268.81;;;21.53;91.94
40946;BME280;55635;50.264;11.918;2023-07-30T07:03:02;95268.72;;;21.80;87.05
40946;BME280;55635;50.264;11.918;2023-07-30T07:05:43;95271.38;;;21.75;88.85
40946;BME280;55635;50.264;11.918;2023-07-30T07:08:25;95271.47;;;21.90;87.68
40946;BME280;55635;50.264;11.918;2023-07-30T07:11:05;95267.53;;;21.65;87.57
40946;BME280;55635;50.264;11.918;2023-07-30T07:13:47;95272.75;;;21.82;87.33
40946;BME280;55635;50.264;11.918;2023-07-30T07:16:28;95259.81;;;21.84;88.71
40946;BME280;55635;50.264;11.918;2023-07-30T07:19:08;95255.84;;;22.02;88.48
40946;BME280;55635;50.264;11.918;2023-07-30T07:21:49;95258.28;;;21.98;86.54
40946;BME280;55635;50.264;11.918;2023-07-30T07:24:30;95269.63;;;22.00;87.34
40946;BME280;55635;50.264;11.918;2023-07-30T07:27:11;95269.13;;;22.13;85.75
40946;BME280;55635;50.264;11.918;2023-07-30T07:29:53;95255.88;;;22.12;86.08
40946;BME280;55635;50.264;11.918;2023-07-30T07:32:33;95263.16;;;22.11;86.44
40946;BME280;55635;50.264;11.918;2023-07-30T07:35:21;95257.84;;;22.37;87.13
40946;BME280;55635;50.264;11.918;2023-07-30T07:38:02;95263.88;;;22.74;85.51
40946;BME280;55635;50.264;11.918;2023-07-30T07:40:44;95254.69;;;22.75;84.57
40946;BME280;55635;50.264;11.918;2023-07-30T07:43:25;95257.94;;;22.87;82.14
40946;BME280;55635;50.264;11.918;2023-07-30T07:46:05;95263.88;;;23.14;81.68
40946;BME280;55635;50.264;11.918;2023-07-30T07:48:53;95260.88;;;23.36;79.27
40946;BME280;55635;50.264;11.918;2023-07-30T07:51:34;95263.31;;;23.48;78.48
40946;BME280;55635;50.264;11.918;2023-07-30T07:54:15;95263.41;;;23.92;77.69
40946;BME280;55635;50.264;11.918;2023-07-30T07:56:56;95257.16;;;24.06;78.72
40946;BME280;55635;50.264;11.918;2023-07-30T07:59:37;95259.59;;;23.98;76.62
40946;BME280;55635;50.264;11.918;2023-07-30T08:02:18;95265.91;;;23.73;77.35
40946;BME280;55635;50.264;11.918;2023-07-30T08:04:59;95269.81;;;24.65;73.72
40946;BME280;55635;50.264;11.918;2023-07-30T08:07:40;95255.84;;;24.48;72.33
40946;BME280;55635;50.264;11.918;2023-07-30T08:10:21;95255.97;;;24.27;72.44
40946;BME280;55635;50.264;11.918;2023-07-30T08:13:02;95251.56;;;23.77;75.97
40946;BME280;55635;50.264;11.918;2023-07-30T08:15:43;95247.81;;;24.32;78.47
40946;BME280;55635;50.264;11.918;2023-07-30T08:18:24;95238.56;;;25.40;74.02
40946;BME280;55635;50.264;11.918;2023-07-30T08:21:05;95244.81;;;25.93;68.56
40946;BME280;55635;50.264;11.918;2023-07-30T08:23:46;95237.53;;;25.65;66.73
40946;BME280;55635;50.264;11.918;2023-07-30T08:26:27;95236.59;;;25.74;67.31
40946;BME280;55635;50.264;11.918;2023-07-30T08:29:08;95244.81;;;26.17;65.18
40946;BME280;55635;50.264;11.918;2023-07-30T08:31:50;95248.81;;;26.80;62.74
40946;BME280;55635;50.264;11.918;2023-07-30T08:34:32;95248.03;;;27.44;62.08
40946;BME280;55635;50.264;11.918;2023-07-30T08:37:13;95239.97;;;27.53;63.24
40946;BME280;55635;50.264;11.918;2023-07-30T08:39:53;95247.81;;;26.52;63.76
40946;BME280;55635;50.264;11.918;2023-07-30T08:42:35;95246.06;;;26.01;67.44
40946;BME280;55635;50.264;11.918;2023-07-30T08:45:16;95246.94;;;26.76;62.40
40946;BME280;55635;50.264;11.918;2023-07-30T08:47:57;95239.19;;;26.08;64.40
40946;BME280;55635;50.264;11.918;2023-07-30T08:50:39;95224.59;;;26.60;62.16
40946;BME280;55635;50.264;11.918;2023-07-30T08:53:20;95223.34;;;26.71;62.43
40946;BME280;55635;50.264;11.918;2023-07-30T08:56:02;95208.50;;;26.82;62.23
40946;BME280;55635;50.264;11.918;2023-07-30T08:58:44;95212.53;;;27.63;59.30
40946;BME280;55635;50.264;11.918;2023-07-30T09:01:32;95221.84;;;27.30;58.47
40946;BME280;55635;50.264;11.918;2023-07-30T09:04:17;95217.38;;;27.80;59.71
40946;BME280;55635;50.264;11.918;2023-07-30T09:07:00;95216.72;;;27.42;58.73
40946;BME280;55635;50.264;11.918;2023-07-30T09:09:42;95225.97;;;26.76;57.92
40946;BME280;55635;50.264;11.918;2023-07-30T09:12:30;95232.00;;;26.73;58.99
40946;BME280;55635;50.264;11.918;2023-07-30T09:15:11;95231.72;;;26.37;58.87
40946;BME280;55635;50.264;11.918;2023-07-30T09:17:55;95239.00;;;26.98;58.54
40946;BME280;55635;50.264;11.918;2023-07-30T09:20:41;95234.22;;;26.90;57.08
40946;BME280;55635;50.264;11.918;2023-07-30T09:23:22;95234.13;;;26.95;57.55
40946;BME280;55635;50.264;11.918;2023-07-30T09:26:04;95228.06;;;27.49;56.96
40946;BME280;55635;50.264;11.918;2023-07-30T09:28:45;95227.66;;;27.96;54.99
40946;BME280;55635;50.264;11.918;2023-07-30T09:31:26;95228.59;;;27.92;55.52
40946;BME280;55635;50.264;11.918;2023-07-30T09:34:08;95232.31;;;27.82;52.03
40946;BME280;55635;50.264;11.918;2023-07-30T09:36:55;95227.88;;;27.73;53.61
40946;BME280;55635;50.264;11.918;2023-07-30T09:39:38;95233.03;;;27.61;54.78
40946;BME280;55635;50.264;11.918;2023-07-30T09:42:18;95234.06;;;28.19;50.99
40946;BME280;55635;50.264;11.918;2023-07-30T09:44:59;95231.50;;;28.23;50.73
40946;BME280;55635;50.264;11.918;2023-07-30T09:47:47;95229.06;;;27.53;51.64
40946;BME280;55635;50.264;11.918;2023-07-30T09:50:28;95219.59;;;27.64;52.32
40946;BME280;55635;50.264;11.918;2023-07-30T09:53:10;95223.03;;;27.70;50.35
40946;BME280;55635;50.264;11.918;2023-07-30T09:55:53;95227.47;;;27.79;53.17
40946;BME280;55635;50.264;11.918;2023-07-30T09:58:34;95229.41;;;27.79;51.50
40946;BME280;55635;50.264;11.918;2023-07-30T10:01:19;95226.16;;;27.77;51.97
40946;BME280;55635;50.264;11.918;2023-07-30T10:04:08;95225.03;;;27.78;50.06
40946;BME280;55635;50.264;11.918;2023-07-30T10:06:58;95226.81;;;27.41;50.52
40946;BME280;55635;50.264;11.918;2023-07-30T10:09:43;95223.16;;;27.92;50.22
40946;BME280;55635;50.264;11.918;2023-07-30T10:12:31;95228.66;;;27.60;48.92
40946;BME280;55635;50.264;11.918;2023-07-30T10:15:12;95211.91;;;27.52;48.12
40946;BME280;55635;50.264;11.918;2023-07-30T10:17:57;95218.78;;;27.91;48.77
40946;BME280;55635;50.264;11.918;2023-07-30T10:20:39;95211.72;;;28.31;49.18
40946;BME280;55635;50.264;11.918;2023-07-30T10:23:20;95217.50;;;28.16;48.72
40946;BME280;55635;50.264;11.918;2023-07-30T10:26:09;95217.97;;;27.63;47.44
40946;BME280;55635;50.264;11.918;2023-07-30T10:29:19;95211.97;;;28.07;47.09
40946;BME280;55635;50.264;11.918;2023-07-30T10:32:00;95201.13;;;28.51;47.91
40946;BME280;55635;50.264;11.918;2023-07-30T10:34:46;95205.41;;;28.44;46.08
40946;BME280;55635;50.264;11.918;2023-07-30T10:37:27;95205.28;;;28.13;47.17
40946;BME280;55635;50.264;11.918;2023-07-30T10:40:16;95204.44;;;28.26;47.67
40946;BME280;55635;50.264;11.918;2023-07-30T10:42:57;95195.53;;;28.70;45.30
40946;BME280;55635;50.264;11.918;2023-07-30T10:45:51;95201.41;;;28.28;45.65
40946;BME280;55635;50.264;11.918;2023-07-30T10:48:40;95185.53;;;29.10;44.81
40946;BME280;55635;50.264;11.918;2023-07-30T10:51:21;95186.41;;;28.97;43.64
40946;BME280;55635;50.264;11.918;2023-07-30T10:54:06;95184.06;;;28.82;45.08
40946;BME280;55635;50.264;11.918;2023-07-30T10:56:50;95179.38;;;28.96;46.23
40946;BME280;55635;50.264;11.918;2023-07-30T10:59:38;95189.25;;;29.36;44.67
40946;BME280;55635;50.264;11.918;2023-07-30T11:02:22;95201.03;;;27.93;48.75
40946;BME280;55635;50.264;11.918;2023-07-30T11:05:15;95218.31;;;25.80;52.57
40946;BME280;55635;50.264;11.918;2023-07-30T11:07:56;95216.22;;;26.57;53.63
40946;BME280;55635;50.264;11.918;2023-07-30T11:10:47;95223.84;;;26.92;51.21
40946;BME280;55635;50.264;11.918;2023-07-30T11:13:28;95209.59;;;27.46;50.58
40946;BME280;55635;50.264;11.918;2023-07-30T11:16:10;95189.47;;;28.37;46.17
40946;BME280;55635;50.264;11.918;2023-07-30T11:18:51;95204.50;;;27.39;48.96
40946;BME280;55635;50.264;11.918;2023-07-30T11:21:32;95207.47;;;27.97;48.24
40946;BME280;55635;50.264;11.918;2023-07-30T11:24:13;95205.06;;;27.82;49.33
40946;BME280;55635;50.264;11.918;2023-07-30T11:26:59;95203.94;;;27.10;49.79
40946;BME280;55635;50.264;11.918;2023-07-30T11:29:40;95206.94;;;26.76;50.76
40946;BME280;55635;50.264;11.918;2023-07-30T11:32:22;95204.06;;;26.86;51.08
40946;BME280;55635;50.264;11.918;2023-07-30T11:35:07;95201.56;;;25.73;53.32
40946;BME280;55635;50.264;11.918;2023-07-30T11:37:48;95204.75;;;26.41;51.05
40946;BME280;55635;50.264;11.918;2023-07-30T11:40:29;95204.16;;;26.25;51.43
40946;BME280;55635;50.264;11.918;2023-07-30T11:43:10;95205.16;;;25.68;53.19
40946;BME280;55635;50.264;11.918;2023-07-30T11:46:15;95202.69;;;25.90;54.12
40946;BME280;55635;50.264;11.918;2023-07-30T11:49:16;95188.56;;;25.17;55.42
40946;BME280;55635;50.264;11.918;2023-07-30T11:54:46;95200.06;;;25.85;53.91
40946;BME280;55635;50.264;11.918;2023-07-30T11:57:36;95201.31;;;25.69;52.19
40946;BME280;55635;50.264;11.918;2023-07-30T12:00:21;95209.63;;;25.78;54.59
40946;BME280;55635;50.264;11.918;2023-07-30T12:03:09;95213.53;;;26.14;51.94
40946;BME280;55635;50.264;11.918;2023-07-30T12:05:50;95204.16;;;26.25;53.61
40946;BME280;55635;50.264;11.918;2023-07-30T12:08:31;95207.34;;;24.85;53.37
40946;BME280;55635;50.264;11.918;2023-07-30T12:11:14;95224.41;;;25.19;54.45
40946;BME280;55635;50.264;11.918;2023-07-30T12:13:55;95219.41;;;25.79;50.98
40946;BME280;55635;50.264;11.918;2023-07-30T12:16:36;95223.88;;;26.12;51.18
40946;BME280;55635;50.264;11.918;2023-07-30T12:19:17;95228.47;;;25.17;51.54
40946;BME280;55635;50.264;11.918;2023-07-30T12:21:57;95219.50;;;25.50;51.35
40946;BME280;55635;50.264;11.918;2023-07-30T12:24:38;95220.28;;;25.51;50.77
40946;BME280;55635;50.264;11.918;2023-07-30T12:27:19;95226.88;;;25.92;51.47
40946;BME280;55635;50.264;11.918;2023-07-30T12:30:00;95233.22;;;24.67;51.48
40946;BME280;55635;50.264;11.918;2023-07-30T12:32:41;95243.09;;;24.48;54.01
40946;BME280;55635;50.264;11.918;2023-07-30T12:35:23;95237.28;;;24.65;53.53
40946;BME280;55635;50.264;11.918;2023-07-30T12:38:04;95242.03;;;24.49;53.89
40946;BME280;55635;50.264;11.918;2023-07-30T12:40:45;95247.94;;;24.12;54.70
40946;BME280;55635;50.264;11.918;2023-07-30T12:43:26;95258.19;;;24.10;56.34
40946;BME280;55635;50.264;11.918;2023-07-30T12:46:07;95263.28;;;23.43;59.30
40946;BME280;55635;50.264;11.918;2023-07-30T12:48:48;95273.53;;;23.66;60.30
40946;BME280;55635;50.264;11.918;2023-07-30T12:51:32;95276.72;;;23.83;60.10
40946;BME280;55635;50.264;11.918;2023-07-30T12:54:13;95274.84;;;23.83;60.37
40946;BME280;55635;50.264;11.918;2023-07-30T12:56:54;95272.31;;;24.02;59.48
40946;BME280;55635;50.264;11.918;2023-07-30T12:59:35;95283.09;;;24.22;58.95
40946;BME280;55635;50.264;11.918;2023-07-30T13:02:16;95276.97;;;24.51;58.04
40946;BME280;55635;50.264;11.918;2023-07-30T13:04:57;95284.22;;;24.11;59.13
40946;BME280;55635;50.264;11.918;2023-07-30T13:07:38;95267.81;;;24.42;57.56
40946;BME280;55635;50.264;11.918;2023-07-30T13:10:19;95275.03;;;24.61;58.95
40946;BME280;55635;50.264;11.918;2023-07-30T13:13:00;95275.28;;;24.60;58.40
40946;BME280;55635;50.264;11.918;2023-07-30T13:15:41;95260.84;;;25.08;57.38
40946;BME280;55635;50.264;11.918;2023-07-30T13:18:23;95232.13;;;25.02;56.83
40946;BME280;55635;50.264;11.918;2023-07-30T13:21:04;95243.81;;;25.03;56.92
40946;BME280;55635;50.264;11.918;2023-07-30T13:23:45;95261.06;;;24.83;58.25
40946;BME280;55635;50.264;11.918;2023-07-30T13:26:26;95253.66;;;24.50;59.21
40946;BME280;55635;50.264;11.918;2023-07-30T13:29:06;95246.41;;;24.79;60.04
40946;BME280;55635;50.264;11.918;2023-07-30T13:31:47;95248.84;;;25.14;58.48
40946;BME280;55635;50.264;11.918;2023-07-30T13:34:28;95247.94;;;25.24;57.49
40946;BME280;55635;50.264;11.918;2023-07-30T13:37:09;95257.03;;;25.90;58.40
40946;BME280;55635;50.264;11.918;2023-07-30T13:39:50;95249.94;;;26.18;55.75
40946;BME280;55635;50.264;11.918;2023-07-30T13:42:31;95243.16;;;26.16;52.46
40946;BME280;55635;50.264;11.918;2023-07-30T13:45:12;95244.63;;;25.61;52.80
40946;BME280;55635;50.264;11.918;2023-07-30T13:47:53;95243.44;;;25.90;53.59
40946;BME280;55635;50.264;11.918;2023-07-30T13:50:33;95234.88;;;26.26;52.63
40946;BME280;55635;50.264;11.918;2023-07-30T13:53:14;95219.06;;;27.02;50.94
40946;BME280;55635;50.264;11.918;2023-07-30T13:55:55;95236.06;;;27.40;46.35
40946;BME280;55635;50.264;11.918;2023-07-30T13:58:36;95247.84;;;26.10;49.42
40946;BME280;55635;50.264;11.918;2023-07-30T14:01:18;95235.38;;;25.33;51.31
40946;BME280;55635;50.264;11.918;2023-07-30T14:03:58;95247.53;;;24.73;52.93
40946;BME280;55635;50.264;11.918;2023-07-30T14:06:39;95258.59;;;24.43;53.55